Main page
METAR-TAF:

METAR-TAF

Airports :

Niederstetten, Germany

Niederstetten Air Base

latitude: 49-24N, longitude: 009-58E, elevation: 468 m

Current weather observation

The report was made 23 minutes ago, at 09:20 UTC
Wind 6 kt from the Southwest
Temperature 4°C
Humidity 93%
Pressure 1025 hPa
Visibility 10 km or more
Few clouds at a height of 700 ft
Broken clouds at a height of 5000 ft

METAR: ETHN 230920Z 23006KT 9999 FEW007 BKN050 04/03 Q1025 BLU BLU TEMPO YLO

Time: 10:43 (09:43 UTC)

Forecast

The report was made 1 hour and 43 minutes ago, at 08:00 UTC
Forecast valid from 23 at 09 UTC to 23 at 18 UTC
Wind 9 kt from the West
Visibility 10 km or more
Scattered clouds at a height of 700 ft
Broken clouds at a height of 5000 ft
Temporary
from 23 at 09 UTC to 23 at 11 UTC
Wind 10 kt from the West/Northwest
Visibility: 6000 m
Broken clouds at a height of 500 ft
Broken clouds at a height of 2000 ft
light rain

TAF: ETHN 230800Z 2309/2318 27009KT 9999 NSW SCT007 BKN050 TEMPO 2309/2311 29010KT 6000 -RA BKN005 BKN020

Weather observations and forecasts of more than 4000 airports (METAR and TAF reports).

The available stations are represented by yellow and red dots on the map.

Hover mouse over dot to see the name of the station.

Then click to see weather observations and forecasts.

To change the map : click on the green buttons with a black cross to zoom in, on the green button with a dash to zoom out, or on the green arrows for adjacent maps.


METAR-TAF: